<?xml version="1.0" encoding="UTF-8"?>
<gpx version="1.1" creator="Endomondo.com" xsi:schemaLocation="http://www.topografix.com/GPX/1/1 http://www.topografix.com/GPX/1/1/gpx.xsd http://www.garmin.com/xmlschemas/GpxExtensions/v3 http://www.garmin.com/xmlschemas/GpxExtensionsv3.xsd http://www.garmin.com/xmlschemas/TrackPointExtension/v1 http://www.garmin.com/xmlschemas/TrackPointExtensionv1.xsd" xmlns="http://www.topografix.com/GPX/1/1" xmlns:gpxtpx="http://www.garmin.com/xmlschemas/TrackPointExtension/v1" xmlns:gpxx="http://www.garmin.com/xmlschemas/GpxExtensions/v3" xmlns:xsi="http://www.w3.org/2001/XMLSchema-instance">
 <metadata>
 <author>
 <name>Jan-Philippe Schilt</name>
 <email id="jp.schilt" domain="gmail.com"/>
 </author>
 <link href="http://www.endomondo.com">
 <text>Endomondo</text>
 </link>
 <time>2014-08-14T21:34:08Z</time>
 </metadata>
 <trk>
 <name>Verloren in Neuss</name>
 <cmt>Verfahren, Akku leer</cmt>
 <src>http://www.endomondo.com/</src>
 <link href="https://www.endomondo.com/workouts/371825812/1055794">
 <text>Verloren in Neuss</text>
 </link>
 <type>CYCLING_SPORT</type>
 <trkseg>
 <trkpt lat="51.227552" lon="6.770823">
 <time>2014-07-12T16:31:39Z</time>
 </trkpt>
 <trkpt lat="51.227552" lon="6.770823">
 <ele>78.0</ele>
 <time>2014-07-12T16:31:41Z</time>
 </trkpt>
 <trkpt lat="51.227428" lon="6.770906">
 <ele>76.0</ele>
 <time>2014-07-12T16:31:53Z</time>
 </trkpt>
 <trkpt lat="51.227205" lon="6.770936">
 <ele>76.0</ele>
 <time>2014-07-12T16:32:01Z</time>
 </trkpt>
 <trkpt lat="51.226933" lon="6.770919">
 <ele>76.0</ele>
 <time>2014-07-12T16:32:08Z</time>
 </trkpt>
 <trkpt lat="51.226666" lon="6.770928">
 <ele>73.0</ele>
 <time>2014-07-12T16:32:14Z</time>
 </trkpt>
 <trkpt lat="51.226425" lon="6.770874">
 <ele>71.0</ele>
 <time>2014-07-12T16:32:19Z</time>
 </trkpt>
 <trkpt lat="51.226154" lon="6.770775">
 <ele>72.0</ele>
 <time>2014-07-12T16:32:25Z</time>
 </trkpt>
 <trkpt lat="51.22583" lon="6.770606">
 <ele>70.0</ele>
 <time>2014-07-12T16:32:31Z</time>
 </trkpt>
 <trkpt lat="51.225415" lon="6.770413">
 <ele>74.0</ele>
 <time>2014-07-12T16:32:39Z</time>
 </trkpt>
 <trkpt lat="51.225201" lon="6.770248">
 <ele>75.0</ele>
 <time>2014-07-12T16:32:46Z</time>
 </trkpt>
 <trkpt lat="51.224972" lon="6.770111">
 <ele>75.0</ele>
 <time>2014-07-12T16:32:53Z</time>
 </trkpt>
 <trkpt lat="51.224712" lon="6.769961">
 <ele>72.0</ele>
 <time>2014-07-12T16:32:59Z</time>
 </trkpt>
 <trkpt lat="51.224427" lon="6.769857">
 <ele>72.0</ele>
 <time>2014-07-12T16:33:05Z</time>
 </trkpt>
 <trkpt lat="51.224095" lon="6.76966">
 <ele>70.0</ele>
 <time>2014-07-12T16:33:11Z</time>
 </trkpt>
 <trkpt lat="51.223772" lon="6.769449">
 <ele>71.0</ele>
 <time>2014-07-12T16:33:17Z</time>
 </trkpt>
 <trkpt lat="51.223509" lon="6.769328">
 <ele>71.0</ele>
 <time>2014-07-12T16:33:22Z</time>
 </trkpt>
 <trkpt lat="51.223257" lon="6.769159">
 <ele>69.0</ele>
 <time>2014-07-12T16:33:27Z</time>
 </trkpt>
 <trkpt lat="51.222952" lon="6.769011">
 <ele>66.0</ele>
 <time>2014-07-12T16:33:32Z</time>
 </trkpt>
 <trkpt lat="51.222718" lon="6.768838">
 <ele>66.0</ele>
 <time>2014-07-12T16:33:37Z</time>
 </trkpt>
 <trkpt lat="51.222461" lon="6.768641">
 <ele>66.0</ele>
 <time>2014-07-12T16:33:42Z</time>
 </trkpt>
 <trkpt lat="51.222241" lon="6.768499">
 <ele>69.0</ele>
 <time>2014-07-12T16:33:47Z</time>
 </trkpt>
 <trkpt lat="51.221905" lon="6.768275">
 <ele>70.0</ele>
 <time>2014-07-12T16:33:53Z</time>
 </trkpt>
 <trkpt lat="51.221628" lon="6.768063">
 <ele>71.0</ele>
 <time>2014-07-12T16:33:59Z</time>
 </trkpt>
 <trkpt lat="51.221356" lon="6.767881">
 <ele>72.0</ele>
 <time>2014-07-12T16:34:04Z</time>
 </trkpt>
 <trkpt lat="51.221111" lon="6.76773">
 <ele>73.0</ele>
 <time>2014-07-12T16:34:09Z</time>
 </trkpt>
 <trkpt lat="51.220804" lon="6.767541">
 <ele>75.0</ele>
 <time>2014-07-12T16:34:15Z</time>
 </trkpt>
 <trkpt lat="51.220524" lon="6.767345">
 <ele>75.0</ele>
 <time>2014-07-12T16:34:21Z</time>
 </trkpt>
 <trkpt lat="51.220299" lon="6.767203">
 <ele>73.0</ele>
 <time>2014-07-12T16:34:26Z</time>
 </trkpt>
 <trkpt lat="51.220108" lon="6.767136">
 <ele>73.0</ele>
 <time>2014-07-12T16:34:30Z</time>
 </trkpt>
 <trkpt lat="51.219853" lon="6.767104">
 <ele>74.0</ele>
 <time>2014-07-12T16:34:35Z</time>
 </trkpt>
 <trkpt lat="51.219577" lon="6.766998">
 <ele>73.0</ele>
 <time>2014-07-12T16:34:41Z</time>
 </trkpt>
 <trkpt lat="51.219341" lon="6.76684">
 <ele>74.0</ele>
 <time>2014-07-12T16:34:46Z</time>
 </trkpt>
 <trkpt lat="51.219185" lon="6.766792">
 <ele>73.0</ele>
 <time>2014-07-12T16:34:49Z</time>
 </trkpt>
 <trkpt lat="51.218923" lon="6.766804">
 <ele>72.0</ele>
 <time>2014-07-12T16:34:54Z</time>
 </trkpt>
 <trkpt lat="51.218684" lon="6.766791">
 <ele>72.0</ele>
 <time>2014-07-12T16:35:02Z</time>
 </trkpt>
 <trkpt lat="51.218729" lon="6.76692">
 <ele>71.0</ele>
 <time>2014-07-12T16:35:09Z</time>
 </trkpt>
 <trkpt lat="51.218818" lon="6.767001">
 <ele>71.0</ele>
 <time>2014-07-12T16:35:15Z</time>
 </trkpt>
 <trkpt lat="51.218869" lon="6.767031">
 <ele>73.0</ele>
 <time>2014-07-12T16:35:18Z</time>
 </trkpt>
 <trkpt lat="51.218869" lon="6.767031">
 <time>2014-07-12T16:35:24Z</time>
 </trkpt>
 </trkseg>
 <trkseg>
 <trkpt lat="51.218938" lon="6.767037">
 <ele>70.0</ele>
 <time>2014-07-12T16:35:28Z</time>
 </trkpt>
 <trkpt lat="51.218938" lon="6.767037">
 <time>2014-07-12T16:35:28Z</time>
 </trkpt>
 <trkpt lat="51.218987" lon="6.767372">
 <ele>72.0</ele>
 <time>2014-07-12T16:35:37Z</time>
 </trkpt>
 <trkpt lat="51.218839" lon="6.767451">
 <ele>75.0</ele>
 <time>2014-07-12T16:35:44Z</time>
 </trkpt>
 <trkpt lat="51.21876" lon="6.767369">
 <ele>76.0</ele>
 <time>2014-07-12T16:35:53Z</time>
 </trkpt>
 <trkpt lat="51.218768" lon="6.766977">
 <ele>74.0</ele>
 <time>2014-07-12T16:36:09Z</time>
 </trkpt>
 <trkpt lat="51.2189" lon="6.766727">
 <ele>76.0</ele>
 <time>2014-07-12T16:36:19Z</time>
 </trkpt>
 <trkpt lat="51.218923" lon="6.766664">
 <ele>77.0</ele>
 <time>2014-07-12T16:36:22Z</time>
 </trkpt>
 <trkpt lat="51.218923" lon="6.766664">
 <time>2014-07-12T16:36:29Z</time>
 </trkpt>
 </trkseg>
 <trkseg>
 <trkpt lat="51.219061" lon="6.766436">
 <ele>75.0</ele>
 <time>2014-07-12T16:36:46Z</time>
 </trkpt>
 <trkpt lat="51.219061" lon="6.766436">
 <time>2014-07-12T16:36:46Z</time>
 </trkpt>
 <trkpt lat="51.219176" lon="6.766327">
 <ele>80.0</ele>
 <time>2014-07-12T16:36:52Z</time>
 </trkpt>
 <trkpt lat="51.21929" lon="6.766208">
 <ele>84.0</ele>
 <time>2014-07-12T16:36:59Z</time>
 </trkpt>
 <trkpt lat="51.219444" lon="6.76593">
 <ele>88.0</ele>
 <time>2014-07-12T16:37:16Z</time>
 </trkpt>
 <trkpt lat="51.220018" lon="6.765196">
 <ele>90.0</ele>
 <time>2014-07-12T16:37:30Z</time>
 </trkpt>
 <trkpt lat="51.220157" lon="6.764889">
 <ele>88.0</ele>
 <time>2014-07-12T16:37:39Z</time>
 </trkpt>
 <trkpt lat="51.220398" lon="6.764642">
 <ele>87.0</ele>
 <time>2014-07-12T16:37:45Z</time>
 </trkpt>
 <trkpt lat="51.220578" lon="6.764396">
 <ele>88.0</ele>
 <time>2014-07-12T16:37:52Z</time>
 </trkpt>
 <trkpt lat="51.220758" lon="6.764223">
 <ele>89.0</ele>
 <time>2014-07-12T16:37:57Z</time>
 </trkpt>
 <trkpt lat="51.220992" lon="6.763918">
 <ele>90.0</ele>
 <time>2014-07-12T16:38:02Z</time>
 </trkpt>
 <trkpt lat="51.221297" lon="6.763558">
 <ele>89.0</ele>
 <time>2014-07-12T16:38:08Z</time>
 </trkpt>
 <trkpt lat="51.221572" lon="6.763213">
 <ele>87.0</ele>
 <time>2014-07-12T16:38:14Z</time>
 </trkpt>
 <trkpt lat="51.221888" lon="6.762861">
 <ele>89.0</ele>
 <time>2014-07-12T16:38:22Z</time>
 </trkpt>
 <trkpt lat="51.222065" lon="6.762676">
 <ele>92.0</ele>
 <time>2014-07-12T16:38:27Z</time>
 </trkpt>
 <trkpt lat="51.222172" lon="6.762526">
 <ele>92.0</ele>
 <time>2014-07-12T16:38:32Z</time>
 </trkpt>
 <trkpt lat="51.222358" lon="6.762341">
 <ele>97.0</ele>
 <time>2014-07-12T16:38:39Z</time>
 </trkpt>
 <trkpt lat="51.222524" lon="6.762186">
 <ele>99.0</ele>
 <time>2014-07-12T16:38:49Z</time>
 </trkpt>
 <trkpt lat="51.22287" lon="6.761763">
 <ele>98.0</ele>
 <time>2014-07-12T16:39:02Z</time>
 </trkpt>
 <trkpt lat="51.222984" lon="6.7616">
 <ele>97.0</ele>
 <time>2014-07-12T16:39:05Z</time>
 </trkpt>
 <trkpt lat="51.223251" lon="6.761222">
 <ele>95.0</ele>
 <time>2014-07-12T16:39:11Z</time>
 </trkpt>
 <trkpt lat="51.223479" lon="6.760947">
 <ele>94.0</ele>
 <time>2014-07-12T16:39:16Z</time>
 </trkpt>
 <trkpt lat="51.223812" lon="6.760555">
 <ele>91.0</ele>
 <time>2014-07-12T16:39:23Z</time>
 </trkpt>
 <trkpt lat="51.223952" lon="6.76043">
 <ele>92.0</ele>
 <time>2014-07-12T16:39:31Z</time>
 </trkpt>
 <trkpt lat="51.224445" lon="6.760063">
 <ele>93.0</ele>
 <time>2014-07-12T16:39:45Z</time>
 </trkpt>
 <trkpt lat="51.224612" lon="6.759998">
 <ele>93.0</ele>
 <time>2014-07-12T16:39:52Z</time>
 </trkpt>
 <trkpt lat="51.224787" lon="6.759902">
 <ele>93.0</ele>
 <time>2014-07-12T16:40:01Z</time>
 </trkpt>
 <trkpt lat="51.225115" lon="6.759817">
 <ele>94.0</ele>
 <time>2014-07-12T16:40:09Z</time>
 </trkpt>
 <trkpt lat="51.225377" lon="6.759801">
 <ele>95.0</ele>
 <time>2014-07-12T16:40:15Z</time>
 </trkpt>
 <trkpt lat="51.225514" lon="6.759855">
 <ele>96.0</ele>
 <time>2014-07-12T16:40:23Z</time>
 </trkpt>
 <trkpt lat="51.225801" lon="6.759827">
 <ele>96.0</ele>
 <time>2014-07-12T16:40:35Z</time>
 </trkpt>
 <trkpt lat="51.226199" lon="6.759648">
 <ele>93.0</ele>
 <time>2014-07-12T16:40:41Z</time>
 </trkpt>
 <trkpt lat="51.226552" lon="6.759413">
 <ele>91.0</ele>
 <time>2014-07-12T16:40:47Z</time>
 </trkpt>
 <trkpt lat="51.226684" lon="6.759241">
 <ele>90.0</ele>
 <time>2014-07-12T16:40:56Z</time>
 </trkpt>
 <trkpt lat="51.226696" lon="6.759202">
 <ele>87.0</ele>
 <time>2014-07-12T16:40:59Z</time>
 </trkpt>
 <trkpt lat="51.226696" lon="6.759202">
 <time>2014-07-12T16:41:06Z</time>
 </trkpt>
 </trkseg>
 <trkseg>
 <trkpt lat="51.226731" lon="6.759015">
 <ele>84.0</ele>
 <time>2014-07-12T16:41:14Z</time>
 </trkpt>
 <trkpt lat="51.226731" lon="6.759015">
 <time>2014-07-12T16:41:14Z</time>
 </trkpt>
 <trkpt lat="51.226506" lon="6.758599">
 <ele>84.0</ele>
 <time>2014-07-12T16:41:20Z</time>
 </trkpt>
 <trkpt lat="51.226336" lon="6.758246">
 <ele>81.0</ele>
 <time>2014-07-12T16:41:25Z</time>
 </trkpt>
 <trkpt lat="51.226161" lon="6.757807">
 <ele>78.0</ele>
 <time>2014-07-12T16:41:31Z</time>
 </trkpt>
 <trkpt lat="51.225877" lon="6.757354">
 <ele>76.0</ele>
 <time>2014-07-12T16:41:38Z</time>
 </trkpt>
 <trkpt lat="51.225728" lon="6.756928">
 <ele>74.0</ele>
 <time>2014-07-12T16:41:44Z</time>
 </trkpt>
 <trkpt lat="51.225643" lon="6.756441">
 <ele>72.0</ele>
 <time>2014-07-12T16:41:49Z</time>
 </trkpt>
 <trkpt lat="51.225637" lon="6.756194">
 <ele>72.0</ele>
 <time>2014-07-12T16:41:52Z</time>
 </trkpt>
 <trkpt lat="51.225654" lon="6.755715">
 <ele>71.0</ele>
 <time>2014-07-12T16:41:57Z</time>
 </trkpt>
 <trkpt lat="51.225684" lon="6.755223">
 <ele>70.0</ele>
 <time>2014-07-12T16:42:02Z</time>
 </trkpt>
 <trkpt lat="51.225729" lon="6.754766">
 <ele>68.0</ele>
 <time>2014-07-12T16:42:07Z</time>
 </trkpt>
 <trkpt lat="51.225785" lon="6.754208">
 <ele>69.0</ele>
 <time>2014-07-12T16:42:13Z</time>
 </trkpt>
 <trkpt lat="51.225848" lon="6.753773">
 <ele>69.0</ele>
 <time>2014-07-12T16:42:18Z</time>
 </trkpt>
 <trkpt lat="51.225928" lon="6.753237">
 <ele>70.0</ele>
 <time>2014-07-12T16:42:24Z</time>
 </trkpt>
 <trkpt lat="51.226008" lon="6.75274">
 <ele>70.0</ele>
 <time>2014-07-12T16:42:30Z</time>
 </trkpt>
 <trkpt lat="51.226103" lon="6.752225">
 <ele>71.0</ele>
 <time>2014-07-12T16:42:36Z</time>
 </trkpt>
 <trkpt lat="51.226204" lon="6.751616">
 <ele>65.0</ele>
 <time>2014-07-12T16:42:42Z</time>
 </trkpt>
 <trkpt lat="51.226298" lon="6.751085">
 <ele>65.0</ele>
 <time>2014-07-12T16:42:48Z</time>
 </trkpt>
 <trkpt lat="51.226378" lon="6.750659">
 <ele>65.0</ele>
 <time>2014-07-12T16:42:53Z</time>
 </trkpt>
 <trkpt lat="51.22647" lon="6.750225">
 <ele>63.0</ele>
 <time>2014-07-12T16:42:58Z</time>
 </trkpt>
 <trkpt lat="51.226579" lon="6.749716">
 <ele>61.0</ele>
 <time>2014-07-12T16:43:04Z</time>
 </trkpt>
 <trkpt lat="51.226673" lon="6.749282">
 <ele>63.0</ele>
 <time>2014-07-12T16:43:09Z</time>
 </trkpt>
 <trkpt lat="51.22678" lon="6.748846">
 <ele>64.0</ele>
 <time>2014-07-12T16:43:14Z</time>
 </trkpt>
 <trkpt lat="51.226909" lon="6.748231">
 <ele>63.0</ele>
 <time>2014-07-12T16:43:20Z</time>
 </trkpt>
 <trkpt lat="51.22701" lon="6.7478">
 <ele>65.0</ele>
 <time>2014-07-12T16:43:25Z</time>
 </trkpt>
 <trkpt lat="51.227123" lon="6.747355">
 <ele>65.0</ele>
 <time>2014-07-12T16:43:30Z</time>
 </trkpt>
 <trkpt lat="51.227276" lon="6.746802">
 <ele>64.0</ele>
 <time>2014-07-12T16:43:36Z</time>
 </trkpt>
 <trkpt lat="51.227389" lon="6.746452">
 <ele>65.0</ele>
 <time>2014-07-12T16:43:40Z</time>
 </trkpt>
 <trkpt lat="51.227525" lon="6.746015">
 <ele>64.0</ele>
 <time>2014-07-12T16:43:45Z</time>
 </trkpt>
 <trkpt lat="51.227662" lon="6.745596">
 <ele>65.0</ele>
 <time>2014-07-12T16:43:50Z</time>
 </trkpt>
 <trkpt lat="51.227796" lon="6.745139">
 <ele>65.0</ele>
 <time>2014-07-12T16:43:55Z</time>
 </trkpt>
 <trkpt lat="51.227908" lon="6.744822">
 <ele>67.0</ele>
 <time>2014-07-12T16:43:59Z</time>
 </trkpt>
 <trkpt lat="51.228067" lon="6.744401">
 <ele>67.0</ele>
 <time>2014-07-12T16:44:04Z</time>
 </trkpt>
 <trkpt lat="51.228176" lon="6.744151">
 <ele>68.0</ele>
 <time>2014-07-12T16:44:07Z</time>
 </trkpt>
 <trkpt lat="51.228356" lon="6.74361">
 <ele>69.0</ele>
 <time>2014-07-12T16:44:13Z</time>
 </trkpt>
 <trkpt lat="51.228448" lon="6.743348">
 <ele>70.0</ele>
 <time>2014-07-12T16:44:16Z</time>
 </trkpt>
 <trkpt lat="51.228639" lon="6.74288">
 <ele>72.0</ele>
 <time>2014-07-12T16:44:22Z</time>
 </trkpt>
 <trkpt lat="51.22882" lon="6.742502">
 <ele>74.0</ele>
 <time>2014-07-12T16:44:27Z</time>
 </trkpt>
 <trkpt lat="51.229016" lon="6.741997">
 <ele>75.0</ele>
 <time>2014-07-12T16:44:33Z</time>
 </trkpt>
 <trkpt lat="51.229217" lon="6.741512">
 <ele>74.0</ele>
 <time>2014-07-12T16:44:39Z</time>
 </trkpt>
 <trkpt lat="51.229379" lon="6.741055">
 <ele>74.0</ele>
 <time>2014-07-12T16:44:44Z</time>
 </trkpt>
 <trkpt lat="51.229576" lon="6.740561">
 <ele>73.0</ele>
 <time>2014-07-12T16:44:50Z</time>
 </trkpt>
 <trkpt lat="51.229734" lon="6.740122">
 <ele>70.0</ele>
 <time>2014-07-12T16:44:57Z</time>
 </trkpt>
 <trkpt lat="51.229902" lon="6.739709">
 <ele>68.0</ele>
 <time>2014-07-12T16:45:02Z</time>
 </trkpt>
 <trkpt lat="51.230039" lon="6.739256">
 <ele>68.0</ele>
 <time>2014-07-12T16:45:07Z</time>
 </trkpt>
 <trkpt lat="51.230179" lon="6.738742">
 <ele>69.0</ele>
 <time>2014-07-12T16:45:13Z</time>
 </trkpt>
 <trkpt lat="51.230339" lon="6.738217">
 <ele>70.0</ele>
 <time>2014-07-12T16:45:19Z</time>
 </trkpt>
 <trkpt lat="51.230421" lon="6.737975">
 <ele>71.0</ele>
 <time>2014-07-12T16:45:22Z</time>
 </trkpt>
 <trkpt lat="51.230522" lon="6.737566">
 <ele>72.0</ele>
 <time>2014-07-12T16:45:27Z</time>
 </trkpt>
 <trkpt lat="51.230609" lon="6.737229">
 <ele>72.0</ele>
 <time>2014-07-12T16:45:31Z</time>
 </trkpt>
 <trkpt lat="51.23072" lon="6.736723">
 <ele>72.0</ele>
 <time>2014-07-12T16:45:37Z</time>
 </trkpt>
 <trkpt lat="51.230821" lon="6.736315">
 <ele>71.0</ele>
 <time>2014-07-12T16:45:42Z</time>
 </trkpt>
 <trkpt lat="51.230879" lon="6.73607">
 <ele>69.0</ele>
 <time>2014-07-12T16:45:45Z</time>
 </trkpt>
 <trkpt lat="51.230942" lon="6.735853">
 <ele>71.0</ele>
 <time>2014-07-12T16:45:48Z</time>
 </trkpt>
 <trkpt lat="51.231037" lon="6.735338">
 <ele>69.0</ele>
 <time>2014-07-12T16:45:54Z</time>
 </trkpt>
 <trkpt lat="51.231125" lon="6.73477">
 <ele>69.0</ele>
 <time>2014-07-12T16:46:01Z</time>
 </trkpt>
 <trkpt lat="51.231187" lon="6.734221">
 <ele>67.0</ele>
 <time>2014-07-12T16:46:07Z</time>
 </trkpt>
 <trkpt lat="51.231231" lon="6.73378">
 <ele>69.0</ele>
 <time>2014-07-12T16:46:12Z</time>
 </trkpt>
 <trkpt lat="51.231274" lon="6.733219">
 <ele>66.0</ele>
 <time>2014-07-12T16:46:18Z</time>
 </trkpt>
 <trkpt lat="51.231302" lon="6.732743">
 <ele>68.0</ele>
 <time>2014-07-12T16:46:24Z</time>
 </trkpt>
 <trkpt lat="51.231319" lon="6.732294">
 <ele>68.0</ele>
 <time>2014-07-12T16:46:29Z</time>
 </trkpt>
 <trkpt lat="51.231323" lon="6.731866">
 <ele>71.0</ele>
 <time>2014-07-12T16:46:34Z</time>
 </trkpt>
 <trkpt lat="51.231301" lon="6.731327">
 <ele>72.0</ele>
 <time>2014-07-12T16:46:40Z</time>
 </trkpt>
 <trkpt lat="51.231261" lon="6.730995">
 <ele>73.0</ele>
 <time>2014-07-12T16:46:44Z</time>
 </trkpt>
 <trkpt lat="51.231247" lon="6.730722">
 <ele>73.0</ele>
 <time>2014-07-12T16:46:47Z</time>
 </trkpt>
 <trkpt lat="51.231216" lon="6.730464">
 <ele>73.0</ele>
 <time>2014-07-12T16:46:50Z</time>
 </trkpt>
 <trkpt lat="51.231182" lon="6.730033">
 <ele>74.0</ele>
 <time>2014-07-12T16:46:55Z</time>
 </trkpt>
 <trkpt lat="51.231094" lon="6.729434">
 <ele>73.0</ele>
 <time>2014-07-12T16:47:02Z</time>
 </trkpt>
 <trkpt lat="51.23104" lon="6.729002">
 <ele>72.0</ele>
 <time>2014-07-12T16:47:07Z</time>
 </trkpt>
 <trkpt lat="51.230933" lon="6.728481">
 <ele>71.0</ele>
 <time>2014-07-12T16:47:13Z</time>
 </trkpt>
 <trkpt lat="51.230823" lon="6.72788">
 <ele>72.0</ele>
 <time>2014-07-12T16:47:20Z</time>
 </trkpt>
 <trkpt lat="51.230716" lon="6.727325">
 <ele>76.0</ele>
 <time>2014-07-12T16:47:26Z</time>
 </trkpt>
 <trkpt lat="51.230533" lon="6.726808">
 <ele>77.0</ele>
 <time>2014-07-12T16:47:32Z</time>
 </trkpt>
 <trkpt lat="51.230402" lon="6.72657">
 <ele>77.0</ele>
 <time>2014-07-12T16:47:35Z</time>
 </trkpt>
 <trkpt lat="51.230131" lon="6.726104">
 <ele>73.0</ele>
 <time>2014-07-12T16:47:41Z</time>
 </trkpt>
 <trkpt lat="51.229982" lon="6.72568">
 <ele>75.0</ele>
 <time>2014-07-12T16:47:46Z</time>
 </trkpt>
 <trkpt lat="51.22977" lon="6.725123">
 <ele>71.0</ele>
 <time>2014-07-12T16:47:52Z</time>
 </trkpt>
 <trkpt lat="51.229615" lon="6.724684">
 <ele>73.0</ele>
 <time>2014-07-12T16:47:57Z</time>
 </trkpt>
 <trkpt lat="51.229434" lon="6.72426">
 <ele>70.0</ele>
 <time>2014-07-12T16:48:02Z</time>
 </trkpt>
 <trkpt lat="51.229278" lon="6.72376">
 <ele>70.0</ele>
 <time>2014-07-12T16:48:08Z</time>
 </trkpt>
 <trkpt lat="51.229118" lon="6.723357">
 <ele>70.0</ele>
 <time>2014-07-12T16:48:13Z</time>
 </trkpt>
 <trkpt lat="51.229009" lon="6.723138">
 <ele>70.0</ele>
 <time>2014-07-12T16:48:16Z</time>
 </trkpt>
 <trkpt lat="51.228836" lon="6.72273">
 <ele>71.0</ele>
 <time>2014-07-12T16:48:21Z</time>
 </trkpt>
 <trkpt lat="51.228666" lon="6.722335">
 <ele>70.0</ele>
 <time>2014-07-12T16:48:26Z</time>
 </trkpt>
 <trkpt lat="51.228442" lon="6.721857">
 <ele>70.0</ele>
 <time>2014-07-12T16:48:32Z</time>
 </trkpt>
 <trkpt lat="51.228332" lon="6.721627">
 <ele>71.0</ele>
 <time>2014-07-12T16:48:35Z</time>
 </trkpt>
 <trkpt lat="51.228126" lon="6.721262">
 <ele>72.0</ele>
 <time>2014-07-12T16:48:40Z</time>
 </trkpt>
 <trkpt lat="51.227906" lon="6.72093">
 <ele>75.0</ele>
 <time>2014-07-12T16:48:45Z</time>
 </trkpt>
 <trkpt lat="51.227686" lon="6.720603">
 <ele>75.0</ele>
 <time>2014-07-12T16:48:50Z</time>
 </trkpt>
 <trkpt lat="51.22743" lon="6.720213">
 <ele>76.0</ele>
 <time>2014-07-12T16:48:56Z</time>
 </trkpt>
 <trkpt lat="51.227312" lon="6.720055">
 <ele>77.0</ele>
 <time>2014-07-12T16:48:59Z</time>
 </trkpt>
 <trkpt lat="51.227092" lon="6.719686">
 <ele>75.0</ele>
 <time>2014-07-12T16:49:04Z</time>
 </trkpt>
 <trkpt lat="51.226868" lon="6.719198">
 <ele>74.0</ele>
 <time>2014-07-12T16:49:10Z</time>
 </trkpt>
 <trkpt lat="51.226725" lon="6.718981">
 <ele>73.0</ele>
 <time>2014-07-12T16:49:13Z</time>
 </trkpt>
 <trkpt lat="51.226508" lon="6.718543">
 <ele>74.0</ele>
 <time>2014-07-12T16:49:19Z</time>
 </trkpt>
 <trkpt lat="51.226346" lon="6.718208">
 <ele>74.0</ele>
 <time>2014-07-12T16:49:24Z</time>
 </trkpt>
 <trkpt lat="51.226131" lon="6.717853">
 <ele>80.0</ele>
 <time>2014-07-12T16:49:29Z</time>
 </trkpt>
 <trkpt lat="51.225856" lon="6.717492">
 <ele>81.0</ele>
 <time>2014-07-12T16:49:35Z</time>
 </trkpt>
 <trkpt lat="51.225531" lon="6.717106">
 <ele>81.0</ele>
 <time>2014-07-12T16:49:41Z</time>
 </trkpt>
 <trkpt lat="51.225321" lon="6.716833">
 <ele>79.0</ele>
 <time>2014-07-12T16:49:45Z</time>
 </trkpt>
 <trkpt lat="51.225165" lon="6.71668">
 <ele>78.0</ele>
 <time>2014-07-12T16:49:48Z</time>
 </trkpt>
 <trkpt lat="51.224932" lon="6.716394">
 <ele>80.0</ele>
 <time>2014-07-12T16:49:53Z</time>
 </trkpt>
 <trkpt lat="51.224682" lon="6.716113">
 <ele>78.0</ele>
 <time>2014-07-12T16:49:59Z</time>
 </trkpt>
 <trkpt lat="51.224452" lon="6.715828">
 <ele>77.0</ele>
 <time>2014-07-12T16:50:04Z</time>
 </trkpt>
 <trkpt lat="51.224206" lon="6.715464">
 <ele>77.0</ele>
 <time>2014-07-12T16:50:10Z</time>
 </trkpt>
 <trkpt lat="51.223935" lon="6.71525">
 <ele>76.0</ele>
 <time>2014-07-12T16:50:15Z</time>
 </trkpt>
 <trkpt lat="51.223775" lon="6.715118">
 <ele>77.0</ele>
 <time>2014-07-12T16:50:18Z</time>
 </trkpt>
 <trkpt lat="51.223435" lon="6.714849">
 <ele>75.0</ele>
 <time>2014-07-12T16:50:24Z</time>
 </trkpt>
 <trkpt lat="51.22327" lon="6.714688">
 <ele>76.0</ele>
 <time>2014-07-12T16:50:27Z</time>
 </trkpt>
 <trkpt lat="51.222954" lon="6.714278">
 <ele>76.0</ele>
 <time>2014-07-12T16:50:33Z</time>
 </trkpt>
 <trkpt lat="51.222825" lon="6.714057">
 <ele>78.0</ele>
 <time>2014-07-12T16:50:36Z</time>
 </trkpt>
 <trkpt lat="51.222717" lon="6.713828">
 <ele>79.0</ele>
 <time>2014-07-12T16:50:39Z</time>
 </trkpt>
 <trkpt lat="51.222579" lon="6.713373">
 <ele>78.0</ele>
 <time>2014-07-12T16:50:44Z</time>
 </trkpt>
 <trkpt lat="51.222504" lon="6.71279">
 <ele>75.0</ele>
 <time>2014-07-12T16:50:50Z</time>
 </trkpt>
 <trkpt lat="51.222478" lon="6.712282">
 <ele>75.0</ele>
 <time>2014-07-12T16:50:55Z</time>
 </trkpt>
 <trkpt lat="51.222494" lon="6.711986">
 <ele>73.0</ele>
 <time>2014-07-12T16:50:58Z</time>
 </trkpt>
 <trkpt lat="51.222437" lon="6.711408">
 <ele>73.0</ele>
 <time>2014-07-12T16:51:04Z</time>
 </trkpt>
 <trkpt lat="51.222418" lon="6.71087">
 <ele>73.0</ele>
 <time>2014-07-12T16:51:09Z</time>
 </trkpt>
 <trkpt lat="51.222411" lon="6.710361">
 <ele>72.0</ele>
 <time>2014-07-12T16:51:14Z</time>
 </trkpt>
 <trkpt lat="51.222407" lon="6.709772">
 <ele>72.0</ele>
 <time>2014-07-12T16:51:20Z</time>
 </trkpt>
 <trkpt lat="51.222368" lon="6.709197">
 <ele>75.0</ele>
 <time>2014-07-12T16:51:26Z</time>
 </trkpt>
 <trkpt lat="51.222356" lon="6.708674">
 <ele>78.0</ele>
 <time>2014-07-12T16:51:31Z</time>
 </trkpt>
 <trkpt lat="51.222343" lon="6.708163">
 <ele>77.0</ele>
 <time>2014-07-12T16:51:36Z</time>
 </trkpt>
 <trkpt lat="51.222342" lon="6.707835">
 <ele>76.0</ele>
 <time>2014-07-12T16:51:39Z</time>
 </trkpt>
 <trkpt lat="51.222349" lon="6.707204">
 <ele>73.0</ele>
 <time>2014-07-12T16:51:45Z</time>
 </trkpt>
 <trkpt lat="51.222356" lon="6.706773">
 <ele>74.0</ele>
 <time>2014-07-12T16:51:49Z</time>
 </trkpt>
 <trkpt lat="51.22238" lon="6.70611">
 <ele>73.0</ele>
 <time>2014-07-12T16:51:55Z</time>
 </trkpt>
 <trkpt lat="51.222371" lon="6.705503">
 <ele>68.0</ele>
 <time>2014-07-12T16:52:01Z</time>
 </trkpt>
 <trkpt lat="51.222409" lon="6.704923">
 <ele>69.0</ele>
 <time>2014-07-12T16:52:07Z</time>
 </trkpt>
 <trkpt lat="51.222415" lon="6.704273">
 <ele>70.0</ele>
 <time>2014-07-12T16:52:13Z</time>
 </trkpt>
 <trkpt lat="51.222422" lon="6.703682">
 <ele>71.0</ele>
 <time>2014-07-12T16:52:19Z</time>
 </trkpt>
 <trkpt lat="51.222436" lon="6.703416">
 <ele>70.0</ele>
 <time>2014-07-12T16:52:22Z</time>
 </trkpt>
 <trkpt lat="51.222452" lon="6.70285">
 <ele>72.0</ele>
 <time>2014-07-12T16:52:28Z</time>
 </trkpt>
 <trkpt lat="51.222428" lon="6.702375">
 <ele>70.0</ele>
 <time>2014-07-12T16:52:33Z</time>
 </trkpt>
 <trkpt lat="51.222439" lon="6.702098">
 <ele>70.0</ele>
 <time>2014-07-12T16:52:36Z</time>
 </trkpt>
 <trkpt lat="51.222443" lon="6.701747">
 <ele>69.0</ele>
 <time>2014-07-12T16:52:40Z</time>
 </trkpt>
 <trkpt lat="51.222446" lon="6.701117">
 <ele>71.0</ele>
 <time>2014-07-12T16:52:47Z</time>
 </trkpt>
 <trkpt lat="51.222421" lon="6.700521">
 <ele>72.0</ele>
 <time>2014-07-12T16:52:53Z</time>
 </trkpt>
 <trkpt lat="51.222432" lon="6.70028">
 <ele>71.0</ele>
 <time>2014-07-12T16:52:56Z</time>
 </trkpt>
 <trkpt lat="51.22243" lon="6.699882">
 <ele>71.0</ele>
 <time>2014-07-12T16:53:00Z</time>
 </trkpt>
 <trkpt lat="51.222479" lon="6.699371">
 <ele>71.0</ele>
 <time>2014-07-12T16:53:06Z</time>
 </trkpt>
 <trkpt lat="51.222591" lon="6.698914">
 <ele>68.0</ele>
 <time>2014-07-12T16:53:11Z</time>
 </trkpt>
 <trkpt lat="51.222421" lon="6.698389">
 <ele>70.0</ele>
 <time>2014-07-12T16:53:17Z</time>
 </trkpt>
 <trkpt lat="51.222178" lon="6.697969">
 <ele>69.0</ele>
 <time>2014-07-12T16:53:23Z</time>
 </trkpt>
 <trkpt lat="51.221868" lon="6.697654">
 <ele>66.0</ele>
 <time>2014-07-12T16:53:29Z</time>
 </trkpt>
 <trkpt lat="51.221536" lon="6.697446">
 <ele>65.0</ele>
 <time>2014-07-12T16:53:35Z</time>
 </trkpt>
 <trkpt lat="51.221185" lon="6.697484">
 <ele>66.0</ele>
 <time>2014-07-12T16:53:41Z</time>
 </trkpt>
 <trkpt lat="51.220918" lon="6.697516">
 <ele>65.0</ele>
 <time>2014-07-12T16:53:45Z</time>
 </trkpt>
 <trkpt lat="51.2207" lon="6.697945">
 <ele>67.0</ele>
 <time>2014-07-12T16:53:51Z</time>
 </trkpt>
 <trkpt lat="51.220344" lon="6.698031">
 <ele>67.0</ele>
 <time>2014-07-12T16:53:57Z</time>
 </trkpt>
 <trkpt lat="51.219843" lon="6.698061">
 <ele>69.0</ele>
 <time>2014-07-12T16:54:03Z</time>
 </trkpt>
 <trkpt lat="51.219664" lon="6.698014">
 <ele>73.0</ele>
 <time>2014-07-12T16:54:06Z</time>
 </trkpt>
 <trkpt lat="51.219435" lon="6.698047">
 <ele>70.0</ele>
 <time>2014-07-12T16:54:09Z</time>
 </trkpt>
 <trkpt lat="51.21907" lon="6.697974">
 <ele>68.0</ele>
 <time>2014-07-12T16:54:14Z</time>
 </trkpt>
 <trkpt lat="51.218707" lon="6.697727">
 <ele>65.0</ele>
 <time>2014-07-12T16:54:20Z</time>
 </trkpt>
 <trkpt lat="51.218503" lon="6.697455">
 <ele>68.0</ele>
 <time>2014-07-12T16:54:25Z</time>
 </trkpt>
 <trkpt lat="51.218367" lon="6.697279">
 <ele>69.0</ele>
 <time>2014-07-12T16:54:28Z</time>
 </trkpt>
 <trkpt lat="51.218023" lon="6.696872">
 <ele>66.0</ele>
 <time>2014-07-12T16:54:34Z</time>
 </trkpt>
 <trkpt lat="51.217779" lon="6.696543">
 <ele>66.0</ele>
 <time>2014-07-12T16:54:39Z</time>
 </trkpt>
 <trkpt lat="51.217499" lon="6.696131">
 <ele>73.0</ele>
 <time>2014-07-12T16:54:45Z</time>
 </trkpt>
 <trkpt lat="51.217172" lon="6.695726">
 <ele>77.0</ele>
 <time>2014-07-12T16:54:51Z</time>
 </trkpt>
 <trkpt lat="51.216847" lon="6.695395">
 <ele>74.0</ele>
 <time>2014-07-12T16:54:56Z</time>
 </trkpt>
 <trkpt lat="51.216681" lon="6.695216">
 <ele>75.0</ele>
 <time>2014-07-12T16:54:59Z</time>
 </trkpt>
 <trkpt lat="51.216502" lon="6.695037">
 <ele>77.0</ele>
 <time>2014-07-12T16:55:02Z</time>
 </trkpt>
 <trkpt lat="51.216173" lon="6.694712">
 <ele>76.0</ele>
 <time>2014-07-12T16:55:08Z</time>
 </trkpt>
 <trkpt lat="51.215887" lon="6.694472">
 <ele>79.0</ele>
 <time>2014-07-12T16:55:13Z</time>
 </trkpt>
 <trkpt lat="51.215462" lon="6.694107">
 <ele>76.0</ele>
 <time>2014-07-12T16:55:20Z</time>
 </trkpt>
 <trkpt lat="51.215126" lon="6.693813">
 <ele>79.0</ele>
 <time>2014-07-12T16:55:26Z</time>
 </trkpt>
 <trkpt lat="51.214834" lon="6.693532">
 <ele>83.0</ele>
 <time>2014-07-12T16:55:32Z</time>
 </trkpt>
 <trkpt lat="51.214465" lon="6.693215">
 <ele>80.0</ele>
 <time>2014-07-12T16:55:38Z</time>
 </trkpt>
 <trkpt lat="51.214122" lon="6.692912">
 <ele>82.0</ele>
 <time>2014-07-12T16:55:44Z</time>
 </trkpt>
 <trkpt lat="51.21397" lon="6.692788">
 <ele>84.0</ele>
 <time>2014-07-12T16:55:47Z</time>
 </trkpt>
 <trkpt lat="51.213611" lon="6.692554">
 <ele>77.0</ele>
 <time>2014-07-12T16:55:53Z</time>
 </trkpt>
 <trkpt lat="51.213274" lon="6.692242">
 <ele>77.0</ele>
 <time>2014-07-12T16:55:59Z</time>
 </trkpt>
 <trkpt lat="51.213002" lon="6.691972">
 <ele>75.0</ele>
 <time>2014-07-12T16:56:04Z</time>
 </trkpt>
 <trkpt lat="51.212734" lon="6.69178">
 <ele>76.0</ele>
 <time>2014-07-12T16:56:09Z</time>
 </trkpt>
 <trkpt lat="51.21245" lon="6.691542">
 <ele>74.0</ele>
 <time>2014-07-12T16:56:14Z</time>
 </trkpt>
 <trkpt lat="51.212127" lon="6.691244">
 <ele>76.0</ele>
 <time>2014-07-12T16:56:20Z</time>
 </trkpt>
 <trkpt lat="51.21184" lon="6.691039">
 <ele>72.0</ele>
 <time>2014-07-12T16:56:25Z</time>
 </trkpt>
 <trkpt lat="51.211548" lon="6.690714">
 <ele>71.0</ele>
 <time>2014-07-12T16:56:31Z</time>
 </trkpt>
 <trkpt lat="51.211322" lon="6.690472">
 <ele>71.0</ele>
 <time>2014-07-12T16:56:36Z</time>
 </trkpt>
 <trkpt lat="51.210997" lon="6.690262">
 <ele>70.0</ele>
 <time>2014-07-12T16:56:42Z</time>
 </trkpt>
 <trkpt lat="51.21071" lon="6.690136">
 <ele>71.0</ele>
 <time>2014-07-12T16:56:47Z</time>
 </trkpt>
 <trkpt lat="51.210333" lon="6.690026">
 <ele>69.0</ele>
 <time>2014-07-12T16:56:53Z</time>
 </trkpt>
 <trkpt lat="51.210008" lon="6.689944">
 <ele>67.0</ele>
 <time>2014-07-12T16:56:58Z</time>
 </trkpt>
 <trkpt lat="51.209675" lon="6.689833">
 <ele>70.0</ele>
 <time>2014-07-12T16:57:03Z</time>
 </trkpt>
 <trkpt lat="51.209219" lon="6.689668">
 <ele>72.0</ele>
 <time>2014-07-12T16:57:10Z</time>
 </trkpt>
 <trkpt lat="51.208814" lon="6.689526">
 <ele>71.0</ele>
 <time>2014-07-12T16:57:16Z</time>
 </trkpt>
 <trkpt lat="51.208458" lon="6.689443">
 <ele>73.0</ele>
 <time>2014-07-12T16:57:22Z</time>
 </trkpt>
 <trkpt lat="51.208174" lon="6.689309">
 <ele>74.0</ele>
 <time>2014-07-12T16:57:27Z</time>
 </trkpt>
 <trkpt lat="51.207864" lon="6.68909">
 <ele>76.0</ele>
 <time>2014-07-12T16:57:33Z</time>
 </trkpt>
 <trkpt lat="51.207543" lon="6.688903">
 <ele>74.0</ele>
 <time>2014-07-12T16:57:39Z</time>
 </trkpt>
 <trkpt lat="51.207292" lon="6.688773">
 <ele>75.0</ele>
 <time>2014-07-12T16:57:44Z</time>
 </trkpt>
 <trkpt lat="51.206974" lon="6.688586">
 <ele>73.0</ele>
 <time>2014-07-12T16:57:49Z</time>
 </trkpt>
 <trkpt lat="51.2066" lon="6.688276">
 <ele>75.0</ele>
 <time>2014-07-12T16:57:55Z</time>
 </trkpt>
 <trkpt lat="51.206287" lon="6.688002">
 <ele>73.0</ele>
 <time>2014-07-12T16:58:00Z</time>
 </trkpt>
 <trkpt lat="51.205966" lon="6.687691">
 <ele>74.0</ele>
 <time>2014-07-12T16:58:06Z</time>
 </trkpt>
 <trkpt lat="51.205739" lon="6.687479">
 <ele>74.0</ele>
 <time>2014-07-12T16:58:10Z</time>
 </trkpt>
 <trkpt lat="51.205407" lon="6.687164">
 <ele>75.0</ele>
 <time>2014-07-12T16:58:16Z</time>
 </trkpt>
 <trkpt lat="51.205091" lon="6.686923">
 <ele>77.0</ele>
 <time>2014-07-12T16:58:22Z</time>
 </trkpt>
 <trkpt lat="51.204816" lon="6.686624">
 <ele>76.0</ele>
 <time>2014-07-12T16:58:28Z</time>
 </trkpt>
 <trkpt lat="51.204415" lon="6.686256">
 <ele>74.0</ele>
 <time>2014-07-12T16:58:35Z</time>
 </trkpt>
 <trkpt lat="51.204119" lon="6.685919">
 <ele>74.0</ele>
 <time>2014-07-12T16:58:41Z</time>
 </trkpt>
 <trkpt lat="51.203954" lon="6.685522">
 <ele>75.0</ele>
 <time>2014-07-12T16:58:47Z</time>
 </trkpt>
 <trkpt lat="51.203778" lon="6.685126">
 <ele>73.0</ele>
 <time>2014-07-12T16:58:53Z</time>
 </trkpt>
 <trkpt lat="51.203711" lon="6.684774">
 <ele>71.0</ele>
 <time>2014-07-12T16:58:59Z</time>
 </trkpt>
 <trkpt lat="51.203493" lon="6.684451">
 <ele>68.0</ele>
 <time>2014-07-12T16:59:05Z</time>
 </trkpt>
 <trkpt lat="51.203401" lon="6.684178">
 <ele>68.0</ele>
 <time>2014-07-12T16:59:10Z</time>
 </trkpt>
 <trkpt lat="51.203266" lon="6.684021">
 <ele>69.0</ele>
 <time>2014-07-12T16:59:17Z</time>
 </trkpt>
 <trkpt lat="51.202998" lon="6.684177">
 <ele>69.0</ele>
 <time>2014-07-12T16:59:28Z</time>
 </trkpt>
 <trkpt lat="51.202872" lon="6.684208">
 <ele>68.0</ele>
 <time>2014-07-12T16:59:33Z</time>
 </trkpt>
 <trkpt lat="51.202716" lon="6.684311">
 <ele>70.0</ele>
 <time>2014-07-12T16:59:39Z</time>
 </trkpt>
 <trkpt lat="51.202549" lon="6.684663">
 <ele>72.0</ele>
 <time>2014-07-12T16:59:46Z</time>
 </trkpt>
 <trkpt lat="51.202326" lon="6.685008">
 <ele>73.0</ele>
 <time>2014-07-12T16:59:52Z</time>
 </trkpt>
 <trkpt lat="51.20201" lon="6.685422">
 <ele>71.0</ele>
 <time>2014-07-12T16:59:58Z</time>
 </trkpt>
 <trkpt lat="51.201613" lon="6.685888">
 <ele>68.0</ele>
 <time>2014-07-12T17:00:05Z</time>
 </trkpt>
 <trkpt lat="51.201521" lon="6.686313">
 <ele>71.0</ele>
 <time>2014-07-12T17:00:10Z</time>
 </trkpt>
 <trkpt lat="51.201313" lon="6.686677">
 <ele>71.0</ele>
 <time>2014-07-12T17:00:16Z</time>
 </trkpt>
 <trkpt lat="51.201121" lon="6.687003">
 <ele>72.0</ele>
 <time>2014-07-12T17:00:23Z</time>
 </trkpt>
 <trkpt lat="51.200937" lon="6.687336">
 <ele>80.0</ele>
 <time>2014-07-12T17:00:29Z</time>
 </trkpt>
 <trkpt lat="51.20083" lon="6.687679">
 <ele>78.0</ele>
 <time>2014-07-12T17:00:38Z</time>
 </trkpt>
 <trkpt lat="51.200537" lon="6.688145">
 <ele>83.0</ele>
 <time>2014-07-12T17:00:55Z</time>
 </trkpt>
 <trkpt lat="51.200407" lon="6.688468">
 <ele>87.0</ele>
 <time>2014-07-12T17:01:02Z</time>
 </trkpt>
 <trkpt lat="51.200263" lon="6.688879">
 <ele>89.0</ele>
 <time>2014-07-12T17:01:10Z</time>
 </trkpt>
 <trkpt lat="51.200248" lon="6.68918">
 <ele>97.0</ele>
 <time>2014-07-12T17:01:16Z</time>
 </trkpt>
 <trkpt lat="51.199866" lon="6.689597">
 <ele>94.0</ele>
 <time>2014-07-12T17:01:25Z</time>
 </trkpt>
 <trkpt lat="51.199616" lon="6.6899">
 <ele>93.0</ele>
 <time>2014-07-12T17:01:32Z</time>
 </trkpt>
 <trkpt lat="51.19945" lon="6.69012">
 <ele>93.0</ele>
 <time>2014-07-12T17:01:39Z</time>
 </trkpt>
 <trkpt lat="51.199283" lon="6.690421">
 <ele>96.0</ele>
 <time>2014-07-12T17:01:53Z</time>
 </trkpt>
 <trkpt lat="51.1991" lon="6.690796">
 <ele>94.0</ele>
 <time>2014-07-12T17:02:02Z</time>
 </trkpt>
 <trkpt lat="51.198889" lon="6.691035">
 <ele>90.0</ele>
 <time>2014-07-12T17:02:07Z</time>
 </trkpt>
 <trkpt lat="51.198692" lon="6.691374">
 <ele>85.0</ele>
 <time>2014-07-12T17:02:13Z</time>
 </trkpt>
 <trkpt lat="51.198483" lon="6.691677">
 <ele>84.0</ele>
 <time>2014-07-12T17:02:19Z</time>
 </trkpt>
 <trkpt lat="51.198396" lon="6.691875">
 <ele>84.0</ele>
 <time>2014-07-12T17:02:24Z</time>
 </trkpt>
 <trkpt lat="51.198306" lon="6.692271">
 <ele>90.0</ele>
 <time>2014-07-12T17:02:31Z</time>
 </trkpt>
 <trkpt lat="51.198101" lon="6.692651">
 <ele>94.0</ele>
 <time>2014-07-12T17:02:38Z</time>
 </trkpt>
 <trkpt lat="51.197966" lon="6.692903">
 <ele>83.0</ele>
 <time>2014-07-12T17:02:44Z</time>
 </trkpt>
 <trkpt lat="51.198085" lon="6.693125">
 <ele>81.0</ele>
 <time>2014-07-12T17:02:49Z</time>
 </trkpt>
 <trkpt lat="51.198113" lon="6.693222">
 <ele>80.0</ele>
 <time>2014-07-12T17:02:54Z</time>
 </trkpt>
 <trkpt lat="51.198113" lon="6.693222">
 <time>2014-07-12T17:02:59Z</time>
 </trkpt>
 </trkseg>
 <trkseg>
 <trkpt lat="51.198113" lon="6.693222">
 <time>2014-07-12T17:03:04Z</time>
 </trkpt>
 <trkpt lat="51.198122" lon="6.693335">
 <ele>78.0</ele>
 <time>2014-07-12T17:03:04Z</time>
 </trkpt>
 <trkpt lat="51.198175" lon="6.69367">
 <ele>84.0</ele>
 <time>2014-07-12T17:03:17Z</time>
 </trkpt>
 <trkpt lat="51.198257" lon="6.693999">
 <ele>82.0</ele>
 <time>2014-07-12T17:03:23Z</time>
 </trkpt>
 <trkpt lat="51.198311" lon="6.694491">
 <ele>79.0</ele>
 <time>2014-07-12T17:03:30Z</time>
 </trkpt>
 <trkpt lat="51.198356" lon="6.694928">
 <ele>80.0</ele>
 <time>2014-07-12T17:03:36Z</time>
 </trkpt>
 <trkpt lat="51.198253" lon="6.695198">
 <ele>80.0</ele>
 <time>2014-07-12T17:03:42Z</time>
 </trkpt>
 <trkpt lat="51.1982" lon="6.695209">
 <ele>82.0</ele>
 <time>2014-07-12T17:03:45Z</time>
 </trkpt>
 <trkpt lat="51.1982" lon="6.695209">
 <time>2014-07-12T17:03:51Z</time>
 </trkpt>
 </trkseg>
 <trkseg>
 <trkpt lat="51.1982" lon="6.695209">
 <time>2014-07-12T17:04:09Z</time>
 </trkpt>
 <trkpt lat="51.198187" lon="6.695494">
 <ele>82.0</ele>
 <time>2014-07-12T17:04:09Z</time>
 </trkpt>
 <trkpt lat="51.198074" lon="6.695623">
 <ele>82.0</ele>
 <time>2014-07-12T17:04:14Z</time>
 </trkpt>
 <trkpt lat="51.197822" lon="6.695737">
 <ele>82.0</ele>
 <time>2014-07-12T17:04:21Z</time>
 </trkpt>
 <trkpt lat="51.197674" lon="6.696046">
 <ele>78.0</ele>
 <time>2014-07-12T17:04:28Z</time>
 </trkpt>
 <trkpt lat="51.197451" lon="6.696055">
 <ele>76.0</ele>
 <time>2014-07-12T17:04:39Z</time>
 </trkpt>
 <trkpt lat="51.197306" lon="6.695779">
 <ele>77.0</ele>
 <time>2014-07-12T17:04:50Z</time>
 </trkpt>
 <trkpt lat="51.197114" lon="6.695382">
 <ele>78.0</ele>
 <time>2014-07-12T17:05:00Z</time>
 </trkpt>
 <trkpt lat="51.196992" lon="6.695182">
 <ele>85.0</ele>
 <time>2014-07-12T17:05:06Z</time>
 </trkpt>
 <trkpt lat="51.196815" lon="6.694926">
 <ele>81.0</ele>
 <time>2014-07-12T17:05:18Z</time>
 </trkpt>
 <trkpt lat="51.196948" lon="6.694639">
 <ele>87.0</ele>
 <time>2014-07-12T17:05:28Z</time>
 </trkpt>
 <trkpt lat="51.19704" lon="6.694413">
 <ele>87.0</ele>
 <time>2014-07-12T17:05:36Z</time>
 </trkpt>
 <trkpt lat="51.197024" lon="6.694294">
 <ele>86.0</ele>
 <time>2014-07-12T17:05:49Z</time>
 </trkpt>
 <trkpt lat="51.197024" lon="6.694294">
 <ele>86.0</ele>
 <time>2014-07-12T17:07:54Z</time>
 </trkpt>
 <trkpt lat="51.197128" lon="6.694106">
 <ele>88.0</ele>
 <time>2014-07-12T17:08:03Z</time>
 </trkpt>
 <trkpt lat="51.197307" lon="6.693791">
 <ele>87.0</ele>
 <time>2014-07-12T17:08:09Z</time>
 </trkpt>
 <trkpt lat="51.197508" lon="6.693439">
 <ele>86.0</ele>
 <time>2014-07-12T17:08:15Z</time>
 </trkpt>
 <trkpt lat="51.197731" lon="6.693152">
 <ele>82.0</ele>
 <time>2014-07-12T17:08:21Z</time>
 </trkpt>
 <trkpt lat="51.197951" lon="6.692686">
 <ele>81.0</ele>
 <time>2014-07-12T17:08:28Z</time>
 </trkpt>
 <trkpt lat="51.198119" lon="6.692418">
 <ele>81.0</ele>
 <time>2014-07-12T17:08:33Z</time>
 </trkpt>
 <trkpt lat="51.19836" lon="6.691946">
 <ele>82.0</ele>
 <time>2014-07-12T17:08:39Z</time>
 </trkpt>
 <trkpt lat="51.198441" lon="6.691577">
 <ele>78.0</ele>
 <time>2014-07-12T17:08:45Z</time>
 </trkpt>
 <trkpt lat="51.198685" lon="6.691238">
 <ele>82.0</ele>
 <time>2014-07-12T17:08:51Z</time>
 </trkpt>
 <trkpt lat="51.199068" lon="6.690793">
 <ele>83.0</ele>
 <time>2014-07-12T17:08:58Z</time>
 </trkpt>
 <trkpt lat="51.199296" lon="6.690405">
 <ele>84.0</ele>
 <time>2014-07-12T17:09:04Z</time>
 </trkpt>
 <trkpt lat="51.199502" lon="6.689999">
 <ele>77.0</ele>
 <time>2014-07-12T17:09:10Z</time>
 </trkpt>
 <trkpt lat="51.199785" lon="6.689535">
 <ele>77.0</ele>
 <time>2014-07-12T17:09:16Z</time>
 </trkpt>
 <trkpt lat="51.200038" lon="6.689146">
 <ele>76.0</ele>
 <time>2014-07-12T17:09:22Z</time>
 </trkpt>
 <trkpt lat="51.200266" lon="6.688743">
 <ele>78.0</ele>
 <time>2014-07-12T17:09:28Z</time>
 </trkpt>
 <trkpt lat="51.20044" lon="6.688486">
 <ele>82.0</ele>
 <time>2014-07-12T17:09:33Z</time>
 </trkpt>
 <trkpt lat="51.200652" lon="6.688078">
 <ele>84.0</ele>
 <time>2014-07-12T17:09:39Z</time>
 </trkpt>
 <trkpt lat="51.200696" lon="6.687933">
 <ele>84.0</ele>
 <time>2014-07-12T17:09:45Z</time>
 </trkpt>
 <trkpt lat="51.200645" lon="6.687843">
 <ele>83.0</ele>
 <time>2014-07-12T17:09:48Z</time>
 </trkpt>
 <trkpt lat="51.200645" lon="6.687843">
 <time>2014-07-12T17:09:55Z</time>
 </trkpt>
 </trkseg>
 <trkseg>
 <trkpt lat="51.200645" lon="6.687843">
 <time>2014-07-12T17:10:20Z</time>
 </trkpt>
 <trkpt lat="51.200869" lon="6.687581">
 <ele>92.0</ele>
 <time>2014-07-12T17:10:20Z</time>
 </trkpt>
 <trkpt lat="51.201008" lon="6.687357">
 <ele>88.0</ele>
 <time>2014-07-12T17:10:26Z</time>
 </trkpt>
 <trkpt lat="51.20114" lon="6.68702">
 <ele>85.0</ele>
 <time>2014-07-12T17:10:33Z</time>
 </trkpt>
 <trkpt lat="51.201299" lon="6.686742">
 <ele>81.0</ele>
 <time>2014-07-12T17:10:40Z</time>
 </trkpt>
 <trkpt lat="51.201434" lon="6.686493">
 <ele>86.0</ele>
 <time>2014-07-12T17:10:45Z</time>
 </trkpt>
 <trkpt lat="51.20156" lon="6.686288">
 <ele>82.0</ele>
 <time>2014-07-12T17:10:50Z</time>
 </trkpt>
 <trkpt lat="51.201574" lon="6.685928">
 <ele>90.0</ele>
 <time>2014-07-12T17:10:56Z</time>
 </trkpt>
 <trkpt lat="51.201355" lon="6.685555">
 <ele>87.0</ele>
 <time>2014-07-12T17:11:03Z</time>
 </trkpt>
 <trkpt lat="51.201312" lon="6.685243">
 <ele>90.0</ele>
 <time>2014-07-12T17:11:08Z</time>
 </trkpt>
 <trkpt lat="51.200965" lon="6.68482">
 <ele>86.0</ele>
 <time>2014-07-12T17:11:15Z</time>
 </trkpt>
 <trkpt lat="51.200836" lon="6.684515">
 <ele>84.0</ele>
 <time>2014-07-12T17:11:20Z</time>
 </trkpt>
 <trkpt lat="51.200679" lon="6.684218">
 <ele>81.0</ele>
 <time>2014-07-12T17:11:26Z</time>
 </trkpt>
 <trkpt lat="51.200588" lon="6.684121">
 <ele>79.0</ele>
 <time>2014-07-12T17:11:33Z</time>
 </trkpt>
 <trkpt lat="51.2001" lon="6.683724">
 <ele>84.0</ele>
 <time>2014-07-12T17:11:47Z</time>
 </trkpt>
 <trkpt lat="51.199828" lon="6.683529">
 <ele>82.0</ele>
 <time>2014-07-12T17:11:53Z</time>
 </trkpt>
 <trkpt lat="51.199578" lon="6.683359">
 <ele>86.0</ele>
 <time>2014-07-12T17:11:59Z</time>
 </trkpt>
 <trkpt lat="51.199333" lon="6.68355">
 <ele>88.0</ele>
 <time>2014-07-12T17:12:06Z</time>
 </trkpt>
 <trkpt lat="51.199171" lon="6.684001">
 <ele>89.0</ele>
 <time>2014-07-12T17:12:12Z</time>
 </trkpt>
 <trkpt lat="51.199042" lon="6.684392">
 <ele>88.0</ele>
 <time>2014-07-12T17:12:17Z</time>
 </trkpt>
 <trkpt lat="51.19894" lon="6.68482">
 <ele>87.0</ele>
 <time>2014-07-12T17:12:22Z</time>
 </trkpt>
 <trkpt lat="51.198828" lon="6.685188">
 <ele>83.0</ele>
 <time>2014-07-12T17:12:27Z</time>
 </trkpt>
 <trkpt lat="51.198828" lon="6.685188">
 <time>2014-07-12T17:12:27Z</time>
 </trkpt>
 </trkseg>
 </trk>
</gpx>